sensor_id;sensor_type;location;lat;lon;timestamp;pressure;altitude;pressure_sealevel;temperature;humidity
21826;BME280;11075;47.944;11.776;2023-05-16T00:00:38;94364.47;;;7.60;43.91
21826;BME280;11075;47.944;11.776;2023-05-16T00:03:05;94373.06;;;7.16;44.65
21826;BME280;11075;47.944;11.776;2023-05-16T00:05:33;94370.22;;;6.02;47.83
21826;BME280;11075;47.944;11.776;2023-05-16T00:07:59;94382.91;;;7.03;44.74
21826;BME280;11075;47.944;11.776;2023-05-16T00:10:26;94363.91;;;7.76;43.17
21826;BME280;11075;47.944;11.776;2023-05-16T00:12:54;94369.97;;;7.05;44.92
21826;BME280;11075;47.944;11.776;2023-05-16T00:15:22;94374.47;;;6.03;47.28
21826;BME280;11075;47.944;11.776;2023-05-16T00:17:50;94374.47;;;6.03;47.23
21826;BME280;11075;47.944;11.776;2023-05-16T00:20:18;94365.63;;;6.28;46.21
21826;BME280;11075;47.944;11.776;2023-05-16T00:22:49;94368.16;;;5.81;46.96
21826;BME280;11075;47.944;11.776;2023-05-16T00:25:17;94370.91;;;6.62;45.84
21826;BME280;11075;47.944;11.776;2023-05-16T00:27:43;94366.47;;;6.75;45.45
21826;BME280;11075;47.944;11.776;2023-05-16T00:30:11;94362.66;;;6.85;44.74
21826;BME280;11075;47.944;11.776;2023-05-16T00:32:38;94353.75;;;7.40;43.68
21826;BME280;11075;47.944;11.776;2023-05-16T00:35:06;94355.38;;;7.32;44.39
21826;BME280;11075;47.944;11.776;2023-05-16T00:37:33;94359.56;;;7.04;44.63
21826;BME280;11075;47.944;11.776;2023-05-16T00:40:00;94350.50;;;6.41;45.67
21826;BME280;11075;47.944;11.776;2023-05-16T00:42:26;94354.59;;;6.93;45.04
21826;BME280;11075;47.944;11.776;2023-05-16T00:44:53;94344.91;;;7.39;44.01
21826;BME280;11075;47.944;11.776;2023-05-16T00:47:20;94352.50;;;7.58;43.50
21826;BME280;11075;47.944;11.776;2023-05-16T00:49:47;94340.19;;;7.36;43.66
21826;BME280;11075;47.944;11.776;2023-05-16T00:52:14;94347.75;;;6.67;45.18
21826;BME280;11075;47.944;11.776;2023-05-16T00:54:42;94347.41;;;5.95;47.03
21826;BME280;11075;47.944;11.776;2023-05-16T00:57:08;94346.81;;;6.62;45.38
21826;BME280;11075;47.944;11.776;2023-05-16T00:59:35;94336.69;;;6.77;45.01
21826;BME280;11075;47.944;11.776;2023-05-16T01:02:03;94341.44;;;5.73;47.08
21826;BME280;11075;47.944;11.776;2023-05-16T01:04:31;94333.88;;;5.83;47.32
21826;BME280;11075;47.944;11.776;2023-05-16T01:07:00;94337.69;;;6.63;45.28
21826;BME280;11075;47.944;11.776;2023-05-16T01:09:27;94334.59;;;6.44;45.63
21826;BME280;11075;47.944;11.776;2023-05-16T01:12:03;94335.09;;;7.14;44.50
21826;BME280;11075;47.944;11.776;2023-05-16T01:17:28;94332.69;;;6.91;44.73
21826;BME280;11075;47.944;11.776;2023-05-16T01:19:59;94330.38;;;7.11;44.56
21826;BME280;11075;47.944;11.776;2023-05-16T01:28:06;94333.47;;;7.21;44.17
21826;BME280;11075;47.944;11.776;2023-05-16T01:30:36;94338.59;;;5.52;47.50
21826;BME280;11075;47.944;11.776;2023-05-16T01:33:04;94331.13;;;6.52;45.70
21826;BME280;11075;47.944;11.776;2023-05-16T01:35:31;94328.38;;;6.70;45.79
21826;BME280;11075;47.944;11.776;2023-05-16T01:38:20;94326.78;;;6.77;45.26
21826;BME280;11075;47.944;11.776;2023-05-16T01:41:01;94327.66;;;6.90;44.54
21826;BME280;11075;47.944;11.776;2023-05-16T01:43:34;94330.34;;;7.49;43.44
21826;BME280;11075;47.944;11.776;2023-05-16T01:46:13;94330.66;;;7.18;44.16
21826;BME280;11075;47.944;11.776;2023-05-16T01:48:56;94329.41;;;7.24;44.03
21826;BME280;11075;47.944;11.776;2023-05-16T01:51:27;94339.06;;;5.54;48.04
21826;BME280;11075;47.944;11.776;2023-05-16T01:53:59;94328.47;;;6.35;45.94
21826;BME280;11075;47.944;11.776;2023-05-16T01:56:31;94332.03;;;6.56;45.59
21826;BME280;11075;47.944;11.776;2023-05-16T01:58:59;94328.94;;;6.84;44.86
21826;BME280;11075;47.944;11.776;2023-05-16T02:01:29;94331.38;;;6.68;45.48
21826;BME280;11075;47.944;11.776;2023-05-16T02:03:57;94323.59;;;6.28;46.72
21826;BME280;11075;47.944;11.776;2023-05-16T02:06:24;94335.34;;;7.00;44.46
21826;BME280;11075;47.944;11.776;2023-05-16T02:08:55;94335.66;;;6.99;44.63
21826;BME280;11075;47.944;11.776;2023-05-16T02:11:22;94332.84;;;6.95;44.77
21826;BME280;11075;47.944;11.776;2023-05-16T02:13:50;94331.78;;;6.32;45.82
21826;BME280;11075;47.944;11.776;2023-05-16T02:16:16;94334.59;;;6.91;45.12
21826;BME280;11075;47.944;11.776;2023-05-16T02:18:44;94332.41;;;7.14;44.26
21826;BME280;11075;47.944;11.776;2023-05-16T02:21:11;94342.19;;;6.80;45.24
21826;BME280;11075;47.944;11.776;2023-05-16T02:23:38;94335.13;;;5.60;48.28
21826;BME280;11075;47.944;11.776;2023-05-16T02:26:05;94334.34;;;5.59;47.88
21826;BME280;11075;47.944;11.776;2023-05-16T02:28:32;94333.56;;;5.85;47.75
21826;BME280;11075;47.944;11.776;2023-05-16T02:30:59;94338.13;;;5.67;48.16
21826;BME280;11075;47.944;11.776;2023-05-16T02:33:27;94327.75;;;5.57;48.29
21826;BME280;11075;47.944;11.776;2023-05-16T02:35:54;94322.97;;;6.40;46.00
21826;BME280;11075;47.944;11.776;2023-05-16T02:38:24;94322.00;;;6.36;45.83
21826;BME280;11075;47.944;11.776;2023-05-16T02:40:51;94320.94;;;6.20;46.54
21826;BME280;11075;47.944;11.776;2023-05-16T02:43:20;94323.66;;;5.94;47.54
21826;BME280;11075;47.944;11.776;2023-05-16T02:45:46;94322.28;;;6.60;45.25
21826;BME280;11075;47.944;11.776;2023-05-16T02:48:15;94324.19;;;6.51;45.23
21826;BME280;11075;47.944;11.776;2023-05-16T02:50:42;94319.34;;;7.42;43.58
21826;BME280;11075;47.944;11.776;2023-05-16T02:53:09;94324.69;;;6.36;45.80
21826;BME280;11075;47.944;11.776;2023-05-16T02:55:36;94325.63;;;6.31;46.07
21826;BME280;11075;47.944;11.776;2023-05-16T02:58:03;94317.22;;;6.59;45.43
21826;BME280;11075;47.944;11.776;2023-05-16T03:00:30;94320.88;;;6.92;44.57
21826;BME280;11075;47.944;11.776;2023-05-16T03:02:57;94322.22;;;5.96;46.57
21826;BME280;11075;47.944;11.776;2023-05-16T03:05:24;94321.41;;;6.13;46.38
21826;BME280;11075;47.944;11.776;2023-05-16T03:07:52;94323.75;;;6.41;46.11
21826;BME280;11075;47.944;11.776;2023-05-16T03:10:19;94318.47;;;5.72;48.03
21826;BME280;11075;47.944;11.776;2023-05-16T03:12:46;94321.91;;;5.98;47.45
21826;BME280;11075;47.944;11.776;2023-05-16T03:15:13;94316.38;;;6.12;46.71
21826;BME280;11075;47.944;11.776;2023-05-16T03:17:40;94320.81;;;5.90;47.46
21826;BME280;11075;47.944;11.776;2023-05-16T03:20:07;94310.47;;;4.89;49.25
21826;BME280;11075;47.944;11.776;2023-05-16T03:22:35;94319.38;;;5.50;48.33
21826;BME280;11075;47.944;11.776;2023-05-16T03:25:02;94310.53;;;6.27;46.26
21826;BME280;11075;47.944;11.776;2023-05-16T03:27:29;94312.97;;;5.68;47.48
21826;BME280;11075;47.944;11.776;2023-05-16T03:29:57;94306.03;;;6.66;44.88
21826;BME280;11075;47.944;11.776;2023-05-16T03:32:24;94313.91;;;6.62;44.99
21826;BME280;11075;47.944;11.776;2023-05-16T03:34:51;94304.41;;;6.26;46.49
21826;BME280;11075;47.944;11.776;2023-05-16T03:37:18;94307.69;;;6.79;44.60
21826;BME280;11075;47.944;11.776;2023-05-16T03:39:45;94322.25;;;5.53;47.53
21826;BME280;11075;47.944;11.776;2023-05-16T03:42:12;94320.69;;;5.70;47.99
21826;BME280;11075;47.944;11.776;2023-05-16T03:44:39;94313.91;;;6.62;45.23
21826;BME280;11075;47.944;11.776;2023-05-16T03:47:06;94318.97;;;6.93;44.37
21826;BME280;11075;47.944;11.776;2023-05-16T03:49:33;94310.63;;;6.94;44.09
21826;BME280;11075;47.944;11.776;2023-05-16T03:52:00;94310.50;;;6.44;45.61
21826;BME280;11075;47.944;11.776;2023-05-16T03:54:27;94317.69;;;5.62;47.33
21826;BME280;11075;47.944;11.776;2023-05-16T03:56:54;94314.09;;;6.95;44.74
21826;BME280;11075;47.944;11.776;2023-05-16T03:59:21;94314.78;;;6.83;44.75
21826;BME280;11075;47.944;11.776;2023-05-16T04:01:49;94315.06;;;6.35;45.63
21826;BME280;11075;47.944;11.776;2023-05-16T04:04:16;94314.81;;;6.11;46.44
21826;BME280;11075;47.944;11.776;2023-05-16T04:06:42;94303.22;;;7.21;43.86
21826;BME280;11075;47.944;11.776;2023-05-16T04:09:09;94311.44;;;6.48;45.29
21826;BME280;11075;47.944;11.776;2023-05-16T04:11:36;94317.88;;;6.94;44.45
21826;BME280;11075;47.944;11.776;2023-05-16T04:14:04;94314.75;;;6.37;45.73
21826;BME280;11075;47.944;11.776;2023-05-16T04:16:31;94308.94;;;6.35;45.88
21826;BME280;11075;47.944;11.776;2023-05-16T04:18:57;94316.13;;;6.98;44.79
21826;BME280;11075;47.944;11.776;2023-05-16T04:21:25;94310.75;;;5.87;47.16
21826;BME280;11075;47.944;11.776;2023-05-16T04:23:51;94315.81;;;6.61;45.59
21826;BME280;11075;47.944;11.776;2023-05-16T04:26:18;94306.91;;;6.40;46.17
21826;BME280;11075;47.944;11.776;2023-05-16T04:28:47;94308.28;;;6.55;45.28
21826;BME280;11075;47.944;11.776;2023-05-16T04:31:14;94311.00;;;6.29;46.64
21826;BME280;11075;47.944;11.776;2023-05-16T04:33:41;94310.75;;;6.98;44.92
21826;BME280;11075;47.944;11.776;2023-05-16T04:36:07;94309.75;;;6.26;46.69
21826;BME280;11075;47.944;11.776;2023-05-16T04:38:35;94313.50;;;6.43;46.05
21826;BME280;11075;47.944;11.776;2023-05-16T04:41:02;94312.50;;;6.64;45.47
21826;BME280;11075;47.944;11.776;2023-05-16T04:43:29;94311.69;;;6.09;47.12
21826;BME280;11075;47.944;11.776;2023-05-16T04:45:56;94312.09;;;6.28;46.55
21826;BME280;11075;47.944;11.776;2023-05-16T04:48:25;94314.06;;;5.58;48.86
21826;BME280;11075;47.944;11.776;2023-05-16T04:50:52;94313.91;;;5.89;48.13
21826;BME280;11075;47.944;11.776;2023-05-16T04:53:19;94303.22;;;6.91;45.34
21826;BME280;11075;47.944;11.776;2023-05-16T04:55:46;94311.06;;;6.67;45.64
21826;BME280;11075;47.944;11.776;2023-05-16T04:58:13;94316.25;;;5.91;47.60
21826;BME280;11075;47.944;11.776;2023-05-16T05:00:40;94315.94;;;5.92;47.88
21826;BME280;11075;47.944;11.776;2023-05-16T05:03:08;94326.81;;;6.69;45.97
21826;BME280;11075;47.944;11.776;2023-05-16T05:05:35;94313.50;;;6.43;46.62
21826;BME280;11075;47.944;11.776;2023-05-16T05:08:02;94318.06;;;6.89;45.36
21826;BME280;11075;47.944;11.776;2023-05-16T05:10:30;94324.34;;;6.93;45.30
21826;BME280;11075;47.944;11.776;2023-05-16T05:12:56;94329.47;;;6.69;45.51
21826;BME280;11075;47.944;11.776;2023-05-16T05:15:23;94320.66;;;6.68;46.29
21826;BME280;11075;47.944;11.776;2023-05-16T05:17:51;94318.22;;;6.37;46.61
21826;BME280;11075;47.944;11.776;2023-05-16T05:20:18;94319.69;;;7.40;44.79
21826;BME280;11075;47.944;11.776;2023-05-16T05:22:45;94320.06;;;6.62;45.89
21826;BME280;11075;47.944;11.776;2023-05-16T05:25:13;94309.56;;;7.46;44.39
21826;BME280;11075;47.944;11.776;2023-05-16T05:27:40;94314.94;;;6.23;48.02
21826;BME280;11075;47.944;11.776;2023-05-16T05:30:07;94311.59;;;6.90;45.82
21826;BME280;11075;47.944;11.776;2023-05-16T05:32:34;94298.19;;;7.49;44.74
21826;BME280;11075;47.944;11.776;2023-05-16T05:35:01;94307.25;;;7.36;45.23
21826;BME280;11075;47.944;11.776;2023-05-16T05:37:29;94319.94;;;7.26;45.66
21826;BME280;11075;47.944;11.776;2023-05-16T05:39:56;94311.09;;;7.26;45.28
21826;BME280;11075;47.944;11.776;2023-05-16T05:42:23;94310.34;;;7.17;46.08
21826;BME280;11075;47.944;11.776;2023-05-16T05:44:50;94312.47;;;6.00;48.48
21826;BME280;11075;47.944;11.776;2023-05-16T05:47:17;94303.34;;;6.66;47.46
21826;BME280;11075;47.944;11.776;2023-05-16T05:49:44;94306.50;;;5.95;49.02
21826;BME280;11075;47.944;11.776;2023-05-16T05:52:11;94304.03;;;6.54;47.66
21826;BME280;11075;47.944;11.776;2023-05-16T05:54:38;94299.31;;;6.89;46.62
21826;BME280;11075;47.944;11.776;2023-05-16T05:57:05;94306.44;;;6.29;48.71
21826;BME280;11075;47.944;11.776;2023-05-16T05:59:31;94292.16;;;7.52;44.49
21826;BME280;11075;47.944;11.776;2023-05-16T06:01:58;94299.22;;;7.56;44.68
21826;BME280;11075;47.944;11.776;2023-05-16T06:04:25;94297.56;;;7.85;44.72
21826;BME280;11075;47.944;11.776;2023-05-16T06:06:52;94304.69;;;6.80;46.16
21826;BME280;11075;47.944;11.776;2023-05-16T06:09:20;94296.91;;;7.88;44.78
21826;BME280;11075;47.944;11.776;2023-05-16T06:11:47;94309.34;;;6.62;46.41
21826;BME280;11075;47.944;11.776;2023-05-16T06:14:14;94310.41;;;7.79;44.87
21826;BME280;11075;47.944;11.776;2023-05-16T06:16:43;94295.38;;;8.20;44.06
21826;BME280;11075;47.944;11.776;2023-05-16T06:19:11;94301.25;;;7.39;45.75
21826;BME280;11075;47.944;11.776;2023-05-16T06:21:42;94296.47;;;7.86;45.44
21826;BME280;11075;47.944;11.776;2023-05-16T06:24:09;94305.88;;;7.00;46.74
21826;BME280;11075;47.944;11.776;2023-05-16T06:26:37;94303.00;;;6.76;47.29
21826;BME280;11075;47.944;11.776;2023-05-16T06:29:04;94297.31;;;7.78;44.24
21826;BME280;11075;47.944;11.776;2023-05-16T06:31:31;94307.00;;;7.20;44.74
21826;BME280;11075;47.944;11.776;2023-05-16T06:33:58;94313.69;;;7.64;44.01
21826;BME280;11075;47.944;11.776;2023-05-16T06:36:25;94314.13;;;7.45;43.83
21826;BME280;11075;47.944;11.776;2023-05-16T06:38:52;94312.63;;;7.36;43.78
21826;BME280;11075;47.944;11.776;2023-05-16T06:41:19;94325.88;;;7.03;45.53
21826;BME280;11075;47.944;11.776;2023-05-16T06:43:47;94330.13;;;6.66;47.26
21826;BME280;11075;47.944;11.776;2023-05-16T06:46:14;94316.94;;;7.49;44.41
21826;BME280;11075;47.944;11.776;2023-05-16T06:48:41;94322.31;;;6.35;47.32
21826;BME280;11075;47.944;11.776;2023-05-16T06:51:08;94310.41;;;7.58;45.02
21826;BME280;11075;47.944;11.776;2023-05-16T06:53:35;94319.41;;;7.96;44.21
21826;BME280;11075;47.944;11.776;2023-05-16T06:56:02;94324.72;;;7.42;44.80
21826;BME280;11075;47.944;11.776;2023-05-16T06:58:29;94320.41;;;6.90;45.19
21826;BME280;11075;47.944;11.776;2023-05-16T07:00:56;94320.84;;;7.01;46.01
21826;BME280;11075;47.944;11.776;2023-05-16T07:03:23;94317.78;;;6.82;46.43
21826;BME280;11075;47.944;11.776;2023-05-16T07:05:50;94318.84;;;6.34;48.47
21826;BME280;11075;47.944;11.776;2023-05-16T07:08:20;94320.00;;;7.39;44.89
21826;BME280;11075;47.944;11.776;2023-05-16T07:10:47;94324.91;;;4.79;49.77
21826;BME280;11075;47.944;11.776;2023-05-16T07:13:14;94314.78;;;6.83;46.04
21826;BME280;11075;47.944;11.776;2023-05-16T07:15:42;94321.00;;;6.96;45.14
21826;BME280;11075;47.944;11.776;2023-05-16T07:18:09;94321.56;;;6.81;45.86
21826;BME280;11075;47.944;11.776;2023-05-16T07:20:37;94327.13;;;5.94;46.72
21826;BME280;11075;47.944;11.776;2023-05-16T07:23:07;94325.72;;;8.33;43.49
21826;BME280;11075;47.944;11.776;2023-05-16T07:25:34;94320.81;;;7.60;44.81
21826;BME280;11075;47.944;11.776;2023-05-16T07:28:02;94322.97;;;7.67;45.12
21826;BME280;11075;47.944;11.776;2023-05-16T07:30:29;94327.34;;;8.70;43.38
21826;BME280;11075;47.944;11.776;2023-05-16T07:32:57;94325.94;;;8.40;43.60
21826;BME280;11075;47.944;11.776;2023-05-16T07:35:24;94330.19;;;8.98;42.31
21826;BME280;11075;47.944;11.776;2023-05-16T07:37:51;94326.72;;;7.24;44.35
21826;BME280;11075;47.944;11.776;2023-05-16T07:40:18;94331.63;;;6.84;46.43
21826;BME280;11075;47.944;11.776;2023-05-16T07:42:46;94329.66;;;7.31;44.72
21826;BME280;11075;47.944;11.776;2023-05-16T07:45:13;94329.00;;;5.77;47.15
21826;BME280;11075;47.944;11.776;2023-05-16T07:47:40;94329.16;;;7.38;45.95
21826;BME280;11075;47.944;11.776;2023-05-16T07:50:09;94331.91;;;7.71;44.71
21826;BME280;11075;47.944;11.776;2023-05-16T07:52:37;94334.66;;;7.83;44.91
21826;BME280;11075;47.944;11.776;2023-05-16T07:55:05;94337.53;;;8.19;43.07
21826;BME280;11075;47.944;11.776;2023-05-16T07:57:32;94339.06;;;8.53;42.98
21826;BME280;11075;47.944;11.776;2023-05-16T07:59:58;94341.19;;;8.15;44.05
21826;BME280;11075;47.944;11.776;2023-05-16T08:02:26;94342.50;;;8.87;43.21
21826;BME280;11075;47.944;11.776;2023-05-16T08:04:57;94340.44;;;8.60;43.03
21826;BME280;11075;47.944;11.776;2023-05-16T08:07:24;94344.59;;;8.69;42.23
21826;BME280;11075;47.944;11.776;2023-05-16T08:09:51;94339.94;;;8.45;43.72
21826;BME280;11075;47.944;11.776;2023-05-16T08:12:18;94353.34;;;6.27;47.29
21826;BME280;11075;47.944;11.776;2023-05-16T08:14:45;94344.47;;;8.78;42.29
21826;BME280;11075;47.944;11.776;2023-05-16T08:17:12;94342.09;;;7.98;43.90
21826;BME280;11075;47.944;11.776;2023-05-16T08:19:39;94344.09;;;9.25;41.78
21826;BME280;11075;47.944;11.776;2023-05-16T08:22:08;94341.19;;;9.05;41.94
21826;BME280;11075;47.944;11.776;2023-05-16T08:24:35;94351.34;;;9.36;41.48
21826;BME280;11075;47.944;11.776;2023-05-16T08:27:02;94337.91;;;8.87;43.05
21826;BME280;11075;47.944;11.776;2023-05-16T08:29:28;94344.63;;;8.03;43.39
21826;BME280;11075;47.944;11.776;2023-05-16T08:31:56;94349.41;;;8.76;41.48
21826;BME280;11075;47.944;11.776;2023-05-16T08:34:23;94352.91;;;9.74;41.37
21826;BME280;11075;47.944;11.776;2023-05-16T08:36:50;94359.16;;;9.78;40.58
21826;BME280;11075;47.944;11.776;2023-05-16T08:39:17;94343.84;;;9.30;41.42
21826;BME280;11075;47.944;11.776;2023-05-16T08:41:44;94337.03;;;8.83;43.14
21826;BME280;11075;47.944;11.776;2023-05-16T08:44:11;94330.66;;;8.88;42.00
21826;BME280;11075;47.944;11.776;2023-05-16T08:46:46;94340.53;;;8.63;43.92
21826;BME280;11075;47.944;11.776;2023-05-16T08:49:17;94339.38;;;9.22;43.33
21826;BME280;11075;47.944;11.776;2023-05-16T08:51:45;94337.28;;;8.58;44.47
21826;BME280;11075;47.944;11.776;2023-05-16T08:54:14;94333.00;;;9.26;43.12
21826;BME280;11075;47.944;11.776;2023-05-16T08:56:42;94337.34;;;8.82;42.41
21826;BME280;11075;47.944;11.776;2023-05-16T08:59:10;94313.94;;;8.25;42.66
21826;BME280;11075;47.944;11.776;2023-05-16T09:01:40;94330.28;;;10.31;39.53
21826;BME280;11075;47.944;11.776;2023-05-16T09:04:09;94326.72;;;11.02;41.12
21826;BME280;11075;47.944;11.776;2023-05-16T09:06:36;94319.06;;;11.70;39.36
21826;BME280;11075;47.944;11.776;2023-05-16T09:09:04;94321.66;;;9.57;41.26
21826;BME280;11075;47.944;11.776;2023-05-16T09:11:34;94322.78;;;10.68;40.44
21826;BME280;11075;47.944;11.776;2023-05-16T09:14:02;94318.28;;;9.60;40.95
21826;BME280;11075;47.944;11.776;2023-05-16T09:16:31;94324.75;;;11.50;37.92
21826;BME280;11075;47.944;11.776;2023-05-16T09:18:59;94309.09;;;12.52;38.24
21826;BME280;11075;47.944;11.776;2023-05-16T09:21:31;94298.06;;;11.64;38.34
21826;BME280;11075;47.944;11.776;2023-05-16T09:26:32;94318.56;;;10.98;39.70
21826;BME280;11075;47.944;11.776;2023-05-16T09:28:59;94321.63;;;10.37;40.91
21826;BME280;11075;47.944;11.776;2023-05-16T09:31:28;94313.13;;;9.67;41.61
21826;BME280;11075;47.944;11.776;2023-05-16T09:34:08;94318.19;;;9.97;40.26
21826;BME280;11075;47.944;11.776;2023-05-16T09:36:36;94328.13;;;10.36;40.03
21826;BME280;11075;47.944;11.776;2023-05-16T09:39:06;94322.38;;;9.17;43.50
21826;BME280;11075;47.944;11.776;2023-05-16T09:41:33;94321.25;;;8.82;43.80
21826;BME280;11075;47.944;11.776;2023-05-16T09:44:04;94329.09;;;9.11;42.50
21826;BME280;11075;47.944;11.776;2023-05-16T09:46:35;94330.84;;;9.44;42.09
21826;BME280;11075;47.944;11.776;2023-05-16T09:49:03;94327.47;;;9.47;42.61
21826;BME280;11075;47.944;11.776;2023-05-16T09:51:29;94335.75;;;10.06;41.30
21826;BME280;11075;47.944;11.776;2023-05-16T09:53:58;94334.81;;;9.87;41.75
21826;BME280;11075;47.944;11.776;2023-05-16T09:56:26;94337.41;;;8.61;42.68
21826;BME280;11075;47.944;11.776;2023-05-16T09:58:54;94340.56;;;8.75;42.60
21826;BME280;11075;47.944;11.776;2023-05-16T10:01:22;94341.63;;;9.32;41.71
21826;BME280;11075;47.944;11.776;2023-05-16T10:03:49;94342.63;;;9.27;40.34
21826;BME280;11075;47.944;11.776;2023-05-16T10:06:17;94338.22;;;9.47;41.14
21826;BME280;11075;47.944;11.776;2023-05-16T10:08:44;94334.22;;;8.35;43.35
21826;BME280;11075;47.944;11.776;2023-05-16T10:11:12;94331.38;;;8.19;44.41
21826;BME280;11075;47.944;11.776;2023-05-16T10:13:40;94335.00;;;8.35;44.80
21826;BME280;11075;47.944;11.776;2023-05-16T10:16:11;94331.97;;;8.82;43.20
21826;BME280;11075;47.944;11.776;2023-05-16T10:18:41;94335.81;;;8.48;43.80
21826;BME280;11075;47.944;11.776;2023-05-16T10:21:13;94332.94;;;8.20;45.31
21826;BME280;11075;47.944;11.776;2023-05-16T10:23:41;94336.38;;;8.08;44.40
21826;BME280;11075;47.944;11.776;2023-05-16T10:26:10;94343.31;;;8.54;44.26
21826;BME280;11075;47.944;11.776;2023-05-16T10:28:40;94350.16;;;8.19;46.06
21826;BME280;11075;47.944;11.776;2023-05-16T10:31:09;94349.22;;;8.36;44.82
21826;BME280;11075;47.944;11.776;2023-05-16T10:33:38;94360.09;;;7.98;44.65
21826;BME280;11075;47.944;11.776;2023-05-16T10:36:07;94347.38;;;8.61;44.16
21826;BME280;11075;47.944;11.776;2023-05-16T10:38:36;94355.84;;;9.32;43.48
21826;BME280;11075;47.944;11.776;2023-05-16T10:41:05;94346.94;;;8.26;45.26
21826;BME280;11075;47.944;11.776;2023-05-16T10:43:33;94350.69;;;8.45;46.41
21826;BME280;11075;47.944;11.776;2023-05-16T10:48:33;94356.88;;;7.42;47.31
21826;BME280;11075;47.944;11.776;2023-05-16T10:51:02;94348.09;;;8.04;45.33
21826;BME280;11075;47.944;11.776;2023-05-16T10:53:33;94346.69;;;8.51;43.56
21826;BME280;11075;47.944;11.776;2023-05-16T11:01:34;94343.88;;;7.94;46.28
21826;BME280;11075;47.944;11.776;2023-05-16T11:04:06;94349.16;;;8.69;44.18
21826;BME280;11075;47.944;11.776;2023-05-16T11:06:43;94344.44;;;7.37;47.56
21826;BME280;11075;47.944;11.776;2023-05-16T11:11:46;94337.53;;;8.19;46.43
21826;BME280;11075;47.944;11.776;2023-05-16T11:14:26;94335.31;;;8.01;47.24
21826;BME280;11075;47.944;11.776;2023-05-16T11:17:13;94340.75;;;7.92;45.48
21826;BME280;11075;47.944;11.776;2023-05-16T11:19:55;94342.66;;;8.58;45.46
21826;BME280;11075;47.944;11.776;2023-05-16T11:22:28;94341.91;;;8.24;45.86
21826;BME280;11075;47.944;11.776;2023-05-16T11:25:07;94337.16;;;8.09;46.18
21826;BME280;11075;47.944;11.776;2023-05-16T11:27:46;94336.81;;;9.13;43.40
21826;BME280;11075;47.944;11.776;2023-05-16T11:30:15;94336.59;;;9.06;43.81
21826;BME280;11075;47.944;11.776;2023-05-16T11:32:45;94338.38;;;9.02;44.76
21826;BME280;11075;47.944;11.776;2023-05-16T11:35:14;94327.94;;;8.31;45.38
21826;BME280;11075;47.944;11.776;2023-05-16T11:37:42;94333.84;;;8.69;46.00
21826;BME280;11075;47.944;11.776;2023-05-16T11:40:11;94332.44;;;9.20;45.00
21826;BME280;11075;47.944;11.776;2023-05-16T11:42:43;94338.84;;;7.92;47.09
21826;BME280;11075;47.944;11.776;2023-05-16T11:47:43;94332.66;;;9.03;45.20
21826;BME280;11075;47.944;11.776;2023-05-16T11:50:17;94340.56;;;7.76;47.88
21826;BME280;11075;47.944;11.776;2023-05-16T11:52:49;94328.34;;;8.53;47.13
21826;BME280;11075;47.944;11.776;2023-05-16T11:55:21;94330.59;;;8.64;47.49
21826;BME280;11075;47.944;11.776;2023-05-16T11:58:07;94329.19;;;8.33;45.67
21826;BME280;11075;47.944;11.776;2023-05-16T12:00:35;94330.28;;;8.77;45.48
21826;BME280;11075;47.944;11.776;2023-05-16T12:03:03;94329.38;;;8.73;46.52
21826;BME280;11075;47.944;11.776;2023-05-16T12:05:32;94333.44;;;9.04;46.41
21826;BME280;11075;47.944;11.776;2023-05-16T12:08:01;94340.53;;;8.18;49.19
21826;BME280;11075;47.944;11.776;2023-05-16T12:10:31;94338.91;;;8.38;47.77
21826;BME280;11075;47.944;11.776;2023-05-16T12:13:02;94328.63;;;9.09;45.78
21826;BME280;11075;47.944;11.776;2023-05-16T12:15:30;94339.38;;;9.09;47.02
21826;BME280;11075;47.944;11.776;2023-05-16T12:17:57;94343.38;;;9.64;45.72
21826;BME280;11075;47.944;11.776;2023-05-16T12:20:26;94338.03;;;8.91;47.39
21826;BME280;11075;47.944;11.776;2023-05-16T12:22:56;94334.75;;;8.73;47.62
21826;BME280;11075;47.944;11.776;2023-05-16T12:25:33;94334.13;;;10.30;43.74
21826;BME280;11075;47.944;11.776;2023-05-16T12:28:07;94335.28;;;8.54;47.42
21826;BME280;11075;47.944;11.776;2023-05-16T12:30:34;94334.91;;;8.89;46.42
21826;BME280;11075;47.944;11.776;2023-05-16T12:33:06;94335.50;;;8.62;46.84
21826;BME280;11075;47.944;11.776;2023-05-16T12:35:43;94325.50;;;9.19;46.51
21826;BME280;11075;47.944;11.776;2023-05-16T12:38:12;94329.75;;;9.33;44.61
21826;BME280;11075;47.944;11.776;2023-05-16T12:40:41;94328.38;;;9.63;44.44
21826;BME280;11075;47.944;11.776;2023-05-16T12:43:20;94329.69;;;7.52;48.72
21826;BME280;11075;47.944;11.776;2023-05-16T12:45:55;94335.72;;;8.56;48.29
21826;BME280;11075;47.944;11.776;2023-05-16T12:48:32;94324.19;;;7.27;51.10
21826;BME280;11075;47.944;11.776;2023-05-16T12:51:15;94316.00;;;8.40;47.37
21826;BME280;11075;47.944;11.776;2023-05-16T12:53:47;94315.75;;;7.58;49.04
21826;BME280;11075;47.944;11.776;2023-05-16T12:56:40;94311.94;;;8.92;46.45
21826;BME280;11075;47.944;11.776;2023-05-16T12:59:07;94314.00;;;8.49;47.85
21826;BME280;11075;47.944;11.776;2023-05-16T13:01:35;94311.09;;;8.54;46.85
21826;BME280;11075;47.944;11.776;2023-05-16T13:04:02;94310.06;;;7.39;51.14
21826;BME280;11075;47.944;11.776;2023-05-16T13:06:31;94302.44;;;8.82;46.51
21826;BME280;11075;47.944;11.776;2023-05-16T13:09:18;94304.75;;;9.44;44.71
21826;BME280;11075;47.944;11.776;2023-05-16T13:11:46;94308.31;;;8.63;45.96
21826;BME280;11075;47.944;11.776;2023-05-16T13:14:13;94311.28;;;9.07;47.35
21826;BME280;11075;47.944;11.776;2023-05-16T13:16:40;94305.53;;;9.45;44.87
21826;BME280;11075;47.944;11.776;2023-05-16T13:19:07;94303.63;;;8.60;44.81
21826;BME280;11075;47.944;11.776;2023-05-16T13:21:34;94317.78;;;9.18;45.59
21826;BME280;11075;47.944;11.776;2023-05-16T13:24:01;94310.66;;;9.62;45.62
21826;BME280;11075;47.944;11.776;2023-05-16T13:26:27;94315.50;;;9.97;43.27
21826;BME280;11075;47.944;11.776;2023-05-16T13:28:54;94309.34;;;9.56;42.88
21826;BME280;11075;47.944;11.776;2023-05-16T13:31:21;94312.03;;;8.71;46.67